Time;durP1;ratioP1;P1;durP2;ratioP2;P2;SDS_P1;SDS_P2;PMS_P1;PMS_P2;Temp;Humidity;BMP_temperature;BMP_pressure;BME280_temperature;BME280_humidity;BME280_pressure;Samples;Min_cycle;Max_cycle;Signal;HPM_P1;HPM_P2
2023/08/09 00:00:32;;;;;;;;;;;20.40;52.80;;;;;;5038882;28;82250;-57
2023/08/09 00:03:00;;;;;;;;;;;20.40;52.90;;;;;;5033140;28;82899;-56
2023/08/09 00:05:26;;;;;;;;;;;20.40;52.90;;;;;;5021591;28;83480;-55
2023/08/09 00:07:52;;;;;;;;;;;20.40;52.90;;;;;;5028740;28;82895;-56
2023/08/09 00:10:17;;;;;;;;;;;20.30;52.80;;;;;;5023757;28;82181;-56
2023/08/09 00:12:43;;;;;;;;;;;20.30;52.80;;;;;;5029637;28;83675;-55
2023/08/09 00:15:09;;;;;;;;;;;20.30;52.80;;;;;;5027535;28;85592;-58
2023/08/09 00:17:34;;;;;;;;;;;20.30;52.90;;;;;;5025686;28;82486;-56
2023/08/09 00:20:00;;;;;;;;;;;20.20;52.90;;;;;;5027014;28;84188;-56
2023/08/09 00:22:26;;;;;;;;;;;20.20;52.90;;;;;;5028543;28;84921;-54
2023/08/09 00:24:52;;;;;;;;;;;20.20;52.80;;;;;;5024919;28;82272;-56
2023/08/09 00:27:17;;;;;;;;;;;20.20;52.80;;;;;;5028318;28;83176;-56
2023/08/09 00:29:43;;;;;;;;;;;20.20;52.80;;;;;;5028197;28;84425;-55
2023/08/09 00:32:08;;;;;;;;;;;20.20;52.80;;;;;;5028540;28;81287;-56
2023/08/09 00:34:34;;;;;;;;;;;20.20;52.80;;;;;;5031115;28;82002;-56
2023/08/09 00:36:59;;;;;;;;;;;20.20;52.80;;;;;;5027899;28;82207;-57
2023/08/09 00:39:25;;;;;;;;;;;20.20;52.90;;;;;;5027423;28;83842;-57
2023/08/09 00:41:50;;;;;;;;;;;20.20;52.80;;;;;;5027303;28;84342;-55
2023/08/09 00:44:16;;;;;;;;;;;20.20;52.80;;;;;;5028146;28;81971;-56
2023/08/09 00:46:42;;;;;;;;;;;20.10;52.80;;;;;;5028079;28;83847;-54
2023/08/09 00:49:08;;;;;;;;;;;20.10;52.80;;;;;;5027661;28;83304;-58
2023/08/09 00:51:34;;;;;;;;;;;20.10;52.80;;;;;;5027876;28;82397;-56
2023/08/09 00:54:00;;;;;;;;;;;20.10;52.80;;;;;;5027587;28;83340;-53
2023/08/09 00:56:25;;;;;;;;;;;20.10;52.80;;;;;;5030463;28;83722;-53
2023/08/09 00:58:51;;;;;;;;;;;20.10;52.80;;;;;;5027745;28;82940;-55
2023/08/09 01:01:16;;;;;;;;;;;20.00;52.70;;;;;;5027308;28;84971;-56
2023/08/09 01:03:42;;;;;;;;;;;20.00;53.40;;;;;;5027095;28;83006;-54
2023/08/09 01:06:19;;;;;;;;;;;20.00;52.70;;;;;;5027649;28;84976;-55
2023/08/09 01:08:49;;;;;;;;;;;20.00;52.90;;;;;;5026385;28;86088;-55
2023/08/09 01:11:20;;;;;;;;;;;20.00;52.90;;;;;;5026854;28;82245;-55
2023/08/09 07:46:39;;;;;;;;;;;17.90;57.80;;;;;;4972095;28;80304;-45
2023/08/09 07:49:04;;;;;;;;;;;18.20;59.30;;;;;;4967792;28;80422;-49
2023/08/09 07:51:30;;;;;;;;;;;18.30;60.20;;;;;;4960975;28;80837;-42
2023/08/09 07:53:55;;;;;;;;;;;18.40;60.30;;;;;;4971457;28;81134;-41
2023/08/09 07:56:21;;;;;;;;;;;18.50;61.80;;;;;;4969827;28;80958;-45
2023/08/09 07:58:46;;;;;;;;;;;18.40;61.70;;;;;;4968559;28;81958;-46
2023/08/09 08:01:12;;;;;;;;;;;18.50;61.20;;;;;;4969850;28;81137;-41
2023/08/09 08:03:38;;;;;;;;;;;18.50;60.80;;;;;;4967841;28;80341;-41
2023/08/09 08:06:04;;;;;;;;;;;18.50;61.40;;;;;;4967958;28;81738;-41
2023/08/09 08:08:30;;;;;;;;;;;18.70;60.00;;;;;;4965600;28;80413;-41
2023/08/09 08:10:56;;;;;;;;;;;18.60;61.80;;;;;;4966124;28;83014;-43
2023/08/09 08:13:21;;;;;;;;;;;18.70;60.70;;;;;;4970553;28;81302;-41
2023/08/09 08:15:47;;;;;;;;;;;18.60;62.80;;;;;;4966831;28;80344;-43
2023/08/09 08:18:12;;;;;;;;;;;18.70;63.20;;;;;;4966435;28;80511;-47
2023/08/09 08:20:38;;;;;;;;;;;18.60;62.60;;;;;;4961334;28;81335;-41
2023/08/09 08:23:06;;;;;;;;;;;18.60;61.80;;;;;;4967607;28;82149;-40
2023/08/09 08:25:31;;;;;;;;;;;18.80;60.50;;;;;;4965881;28;80299;-44
2023/08/09 08:27:57;;;;;;;;;;;18.80;60.00;;;;;;4976248;28;81478;-41
2023/08/09 08:30:22;;;;;;;;;;;18.80;60.10;;;;;;4970763;28;81034;-42
2023/08/09 08:32:48;;;;;;;;;;;18.80;59.70;;;;;;4960924;28;82401;-40
2023/08/09 08:35:14;;;;;;;;;;;18.80;59.50;;;;;;4960443;28;80863;-45
2023/08/09 08:37:41;;;;;;;;;;;18.80;59.40;;;;;;4972879;28;80712;-43
2023/08/09 08:40:08;;;;;;;;;;;18.90;59.40;;;;;;4964472;28;81322;-44
2023/08/09 08:42:35;;;;;;;;;;;18.80;59.30;;;;;;4961930;28;80781;-42
2023/08/09 08:45:09;;;;;;;;;;;18.80;59.10;;;;;;4963567;28;81067;-45
2023/08/09 08:47:35;;;;;;;;;;;18.80;59.10;;;;;;4953249;28;81226;-43
2023/08/09 08:50:02;;;;;;;;;;;18.80;58.80;;;;;;4953340;28;80634;-44
2023/08/09 08:52:29;;;;;;;;;;;18.80;58.60;;;;;;4945407;28;81491;-42
2023/08/09 08:54:54;;;;;;;;;;;18.80;58.80;;;;;;4954333;28;80583;-44
2023/08/09 08:57:20;;;;;;;;;;;18.90;58.90;;;;;;4950277;28;81404;-46
2023/08/09 08:59:46;;;;;;;;;;;18.80;58.80;;;;;;4947991;28;81590;-44
2023/08/09 09:02:13;;;;;;;;;;;18.90;58.60;;;;;;4944802;28;80393;-41
2023/08/09 09:04:38;;;;;;;;;;;18.80;58.50;;;;;;4951069;28;80722;-42
2023/08/09 09:07:05;;;;;;;;;;;18.90;58.50;;;;;;4949531;28;81289;-42
2023/08/09 09:09:30;;;;;;;;;;;18.90;58.60;;;;;;4953099;28;80522;-40
2023/08/09 09:12:00;;;;;;;;;;;18.80;58.50;;;;;;4956889;28;80974;-44
2023/08/09 09:14:25;;;;;;;;;;;18.90;58.50;;;;;;4955898;28;80313;-42
2023/08/09 09:16:51;;;;;;;;;;;18.80;58.40;;;;;;4960382;28;80434;-41
2023/08/09 09:19:17;;;;;;;;;;;18.80;58.50;;;;;;4955958;28;80284;-42
2023/08/09 09:21:43;;;;;;;;;;;18.80;58.50;;;;;;4953265;28;82042;-42
2023/08/09 09:24:09;;;;;;;;;;;18.80;58.50;;;;;;4956967;28;81428;-44
2023/08/09 09:26:37;;;;;;;;;;;18.80;58.40;;;;;;4956589;28;81046;-43
2023/08/09 09:29:06;;;;;;;;;;;18.80;58.40;;;;;;4944157;28;80547;-41
2023/08/09 09:31:36;;;;;;;;;;;18.80;58.40;;;;;;4953419;28;80596;-44
2023/08/09 09:34:03;;;;;;;;;;;18.80;58.30;;;;;;4957088;28;81258;-43
2023/08/09 09:36:29;;;;;;;;;;;18.80;58.40;;;;;;4957450;28;80606;-44
2023/08/09 09:38:55;;;;;;;;;;;18.80;58.20;;;;;;4953551;28;81286;-45
2023/08/09 09:41:21;;;;;;;;;;;18.80;58.30;;;;;;4950655;28;82158;-41
2023/08/09 09:43:50;;;;;;;;;;;18.80;58.30;;;;;;4954781;28;81144;-44
2023/08/09 09:46:25;;;;;;;;;;;18.90;58.20;;;;;;4945072;28;81417;-44
2023/08/09 09:48:58;;;;;;;;;;;18.90;58.20;;;;;;4955380;28;80699;-44
2023/08/09 09:51:24;;;;;;;;;;;18.90;58.00;;;;;;4949917;28;80861;-43
2023/08/09 09:53:49;;;;;;;;;;;18.90;58.10;;;;;;4941565;28;81195;-45
2023/08/09 09:56:15;;;;;;;;;;;18.90;58.20;;;;;;4949356;28;80394;-42
2023/08/09 09:58:41;;;;;;;;;;;18.90;58.10;;;;;;4948478;28;82202;-44
2023/08/09 10:01:08;;;;;;;;;;;19.00;58.20;;;;;;4950818;28;81138;-44
2023/08/09 10:03:36;;;;;;;;;;;18.90;58.10;;;;;;4952504;28;81143;-46
2023/08/09 10:06:02;;;;;;;;;;;19.00;57.90;;;;;;4949788;28;81316;-44
2023/08/09 10:08:28;;;;;;;;;;;19.00;57.90;;;;;;4952402;28;81885;-41
2023/08/09 10:10:55;;;;;;;;;;;19.10;57.90;;;;;;4957566;28;80854;-41
2023/08/09 10:13:23;;;;;;;;;;;19.10;58.50;;;;;;4957865;28;81346;-44
2023/08/09 10:15:51;;;;;;;;;;;19.10;57.70;;;;;;4945990;28;80906;-45
2023/08/09 10:18:23;;;;;;;;;;;19.10;57.90;;;;;;4942021;28;81484;-43
2023/08/09 10:20:52;;;;;;;;;;;19.10;57.80;;;;;;4959374;28;81276;-43
2023/08/09 10:23:22;;;;;;;;;;;19.20;57.80;;;;;;4952569;28;80568;-42
2023/08/09 10:25:48;;;;;;;;;;;19.20;57.80;;;;;;4944152;28;82037;-44
2023/08/09 10:28:13;;;;;;;;;;;19.20;57.70;;;;;;4951769;28;80254;-42
2023/08/09 10:30:49;;;;;;;;;;;19.20;57.60;;;;;;4952179;28;80749;-46
2023/08/09 10:33:18;;;;;;;;;;;19.20;57.70;;;;;;4954831;28;80666;-43
2023/08/09 10:35:51;;;;;;;;;;;19.20;57.60;;;;;;4942650;28;81949;-42
2023/08/09 10:38:32;;;;;;;;;;;19.20;57.70;;;;;;4956448;28;82758;-42
2023/08/09 10:40:58;;;;;;;;;;;19.30;57.60;;;;;;4956289;28;80303;-41
2023/08/09 10:43:25;;;;;;;;;;;19.30;57.50;;;;;;4943024;28;81950;-44
2023/08/09 10:45:52;;;;;;;;;;;19.40;57.50;;;;;;4950359;28;81207;-45
2023/08/09 10:48:24;;;;;;;;;;;19.40;57.40;;;;;;4958302;28;80997;-41
2023/08/09 10:51:01;;;;;;;;;;;19.40;57.40;;;;;;4952661;28;80773;-42
2023/08/09 10:53:27;;;;;;;;;;;19.40;57.30;;;;;;4953555;28;81260;-42
2023/08/09 10:55:57;;;;;;;;;;;19.40;57.30;;;;;;4950775;28;81895;-43
2023/08/09 10:58:28;;;;;;;;;;;19.50;57.20;;;;;;4956943;28;80742;-41
2023/08/09 11:00:54;;;;;;;;;;;19.50;57.10;;;;;;4959734;28;81991;-44
2023/08/09 11:03:19;;;;;;;;;;;19.50;57.00;;;;;;4948154;28;82446;-41
2023/08/09 11:05:45;;;;;;;;;;;19.60;56.90;;;;;;4948933;28;80919;-41
2023/08/09 11:08:11;;;;;;;;;;;19.50;56.80;;;;;;4955394;28;80392;-42
2023/08/09 11:10:42;;;;;;;;;;;19.60;56.80;;;;;;4953032;28;81095;-45
2023/08/09 11:13:08;;;;;;;;;;;19.60;56.60;;;;;;4953653;28;81662;-43
2023/08/09 11:15:34;;;;;;;;;;;19.60;56.90;;;;;;4955107;28;80672;-42
2023/08/09 11:18:00;;;;;;;;;;;19.60;56.70;;;;;;4956376;28;80764;-44
2023/08/09 11:20:26;;;;;;;;;;;19.70;56.70;;;;;;4955069;28;83051;-44
2023/08/09 11:22:56;;;;;;;;;;;19.70;56.60;;;;;;4952424;28;80607;-42
2023/08/09 11:25:22;;;;;;;;;;;19.70;56.40;;;;;;4948041;28;80472;-43
2023/08/09 11:27:51;;;;;;;;;;;19.70;56.40;;;;;;4947239;28;80450;-43
2023/08/09 11:30:17;;;;;;;;;;;19.70;56.40;;;;;;4943024;28;82470;-45
2023/08/09 11:32:43;;;;;;;;;;;19.80;56.40;;;;;;4949147;28;81321;-43
2023/08/09 11:35:09;;;;;;;;;;;19.80;56.40;;;;;;4953768;28;80411;-43
2023/08/09 11:37:34;;;;;;;;;;;19.80;56.30;;;;;;4955406;28;80779;-43
2023/08/09 11:40:00;;;;;;;;;;;19.90;56.30;;;;;;4945543;28;81409;-42
2023/08/09 11:42:25;;;;;;;;;;;19.80;56.30;;;;;;4947113;28;80445;-41
2023/08/09 11:44:51;;;;;;;;;;;19.90;56.30;;;;;;4958963;28;80256;-44
2023/08/09 11:47:17;;;;;;;;;;;19.90;56.20;;;;;;4956643;28;81598;-45
2023/08/09 11:49:43;;;;;;;;;;;19.90;56.20;;;;;;4948330;28;80956;-42
2023/08/09 11:52:13;;;;;;;;;;;19.90;56.20;;;;;;4947243;28;82911;-43
2023/08/09 11:54:40;;;;;;;;;;;20.00;56.10;;;;;;4954227;28;81671;-41
2023/08/09 11:57:06;;;;;;;;;;;20.00;56.10;;;;;;4943093;28;82568;-43
2023/08/09 11:59:32;;;;;;;;;;;20.00;56.00;;;;;;4950564;28;84734;-45
2023/08/09 12:01:58;;;;;;;;;;;20.00;56.00;;;;;;4949935;28;83381;-41
2023/08/09 12:04:25;;;;;;;;;;;20.10;56.10;;;;;;4959453;28;82774;-45
2023/08/09 12:06:55;;;;;;;;;;;20.10;56.00;;;;;;4949842;28;84029;-43
2023/08/09 12:09:25;;;;;;;;;;;20.10;56.10;;;;;;4944993;28;84030;-44
2023/08/09 12:11:51;;;;;;;;;;;20.20;56.00;;;;;;4952379;28;82860;-42
2023/08/09 12:14:16;;;;;;;;;;;20.20;56.10;;;;;;4955518;28;82098;-44
2023/08/09 12:16:42;;;;;;;;;;;20.20;56.00;;;;;;4944226;28;82661;-45
2023/08/09 12:19:07;;;;;;;;;;;20.20;56.00;;;;;;4950411;28;82436;-42
2023/08/09 12:21:33;;;;;;;;;;;20.20;56.00;;;;;;4952164;28;82758;-41
2023/08/09 12:23:58;;;;;;;;;;;20.20;56.00;;;;;;4952092;28;83739;-43
2023/08/09 12:26:28;;;;;;;;;;;20.30;56.00;;;;;;4948150;28;84098;-46
2023/08/09 12:28:54;;;;;;;;;;;20.30;56.00;;;;;;4945802;28;84030;-45
2023/08/09 12:31:20;;;;;;;;;;;20.30;55.80;;;;;;4954486;28;83122;-40
2023/08/09 12:33:45;;;;;;;;;;;20.40;55.90;;;;;;4957609;28;82053;-45
2023/08/09 12:36:12;;;;;;;;;;;20.40;56.00;;;;;;4944097;28;83351;-42
2023/08/09 12:38:38;;;;;;;;;;;20.40;55.90;;;;;;4945717;28;82874;-44
2023/08/09 12:41:04;;;;;;;;;;;20.40;55.80;;;;;;4950835;28;82457;-43
2023/08/09 12:43:29;;;;;;;;;;;20.40;55.80;;;;;;4954578;28;81624;-44
2023/08/09 12:45:55;;;;;;;;;;;20.40;55.70;;;;;;4951791;28;82206;-44
2023/08/09 12:48:21;;;;;;;;;;;20.50;55.70;;;;;;4949385;28;82214;-46
2023/08/09 12:50:46;;;;;;;;;;;20.50;55.70;;;;;;4953956;28;85000;-41
2023/08/09 12:53:12;;;;;;;;;;;20.50;55.60;;;;;;4955421;28;82168;-42
2023/08/09 12:55:37;;;;;;;;;;;20.50;55.60;;;;;;4949956;28;82190;-42
2023/08/09 12:58:03;;;;;;;;;;;20.60;55.60;;;;;;4951562;28;82055;-43
2023/08/09 13:00:30;;;;;;;;;;;20.60;55.50;;;;;;4954512;28;82075;-44
2023/08/09 13:02:55;;;;;;;;;;;20.60;55.40;;;;;;4957695;28;82489;-44
2023/08/09 13:05:21;;;;;;;;;;;20.60;55.50;;;;;;4944805;28;82932;-42
2023/08/09 13:07:47;;;;;;;;;;;20.70;55.50;;;;;;4952235;28;81540;-42
2023/08/09 13:10:12;;;;;;;;;;;20.70;55.50;;;;;;4959067;28;82370;-43
2023/08/09 13:12:38;;;;;;;;;;;20.70;55.30;;;;;;4956933;28;82062;-43
2023/08/09 13:15:04;;;;;;;;;;;20.70;55.40;;;;;;4949610;28;83960;-44
2023/08/09 13:17:30;;;;;;;;;;;20.80;55.40;;;;;;4950065;28;83065;-41
2023/08/09 13:19:56;;;;;;;;;;;20.80;55.40;;;;;;4952980;28;82116;-43
2023/08/09 13:22:21;;;;;;;;;;;20.80;55.40;;;;;;4947363;28;82992;-42
2023/08/09 13:24:47;;;;;;;;;;;20.80;55.40;;;;;;4947039;28;82191;-45
2023/08/09 13:27:13;;;;;;;;;;;20.90;55.30;;;;;;4956800;28;82167;-45
2023/08/09 13:29:38;;;;;;;;;;;20.90;55.30;;;;;;4947199;28;82348;-41
2023/08/09 13:32:04;;;;;;;;;;;20.90;55.30;;;;;;4960250;28;82600;-43
2023/08/09 13:34:29;;;;;;;;;;;20.90;55.20;;;;;;4947022;28;82211;-44
2023/08/09 13:36:55;;;;;;;;;;;20.90;55.30;;;;;;4952535;28;83026;-41
2023/08/09 13:39:20;;;;;;;;;;;20.90;55.30;;;;;;4947322;28;83015;-45
2023/08/09 13:41:46;;;;;;;;;;;21.00;55.40;;;;;;4951986;28;86929;-42
2023/08/09 13:44:11;;;;;;;;;;;21.00;55.30;;;;;;4949816;28;83185;-45
2023/08/09 13:46:37;;;;;;;;;;;21.00;55.30;;;;;;4949677;28;82106;-46
2023/08/09 13:49:04;;;;;;;;;;;21.00;55.20;;;;;;4957567;28;82059;-40
2023/08/09 13:51:29;;;;;;;;;;;21.00;55.30;;;;;;4950326;28;82182;-45
2023/08/09 13:53:55;;;;;;;;;;;21.00;55.40;;;;;;4952928;28;82129;-42
2023/08/09 13:56:20;;;;;;;;;;;21.00;55.30;;;;;;4955625;28;82341;-45
2023/08/09 13:58:46;;;;;;;;;;;21.10;55.20;;;;;;4957715;28;82093;-43
2023/08/09 14:01:11;;;;;;;;;;;21.00;55.20;;;;;;4946940;28;82544;-42
2023/08/09 14:03:37;;;;;;;;;;;21.10;55.30;;;;;;4947577;28;83888;-48
2023/08/09 14:06:03;;;;;;;;;;;21.10;55.30;;;;;;4957456;28;82082;-41
2023/08/09 14:08:28;;;;;;;;;;;21.10;55.10;;;;;;4953973;28;82222;-43
2023/08/09 14:10:54;;;;;;;;;;;21.20;55.00;;;;;;4950882;28;82915;-44
2023/08/09 14:13:19;;;;;;;;;;;21.20;54.90;;;;;;4950782;28;82158;-42
2023/08/09 14:15:45;;;;;;;;;;;21.30;54.90;;;;;;4956919;28;83214;-44
2023/08/09 14:18:10;;;;;;;;;;;21.30;54.80;;;;;;4949438;28;82047;-43
2023/08/09 14:20:36;;;;;;;;;;;21.30;54.70;;;;;;4953624;28;82181;-44
2023/08/09 14:23:02;;;;;;;;;;;21.30;54.60;;;;;;4949505;28;82788;-43
2023/08/09 14:25:27;;;;;;;;;;;21.40;54.70;;;;;;4956571;28;82207;-43
2023/08/09 14:27:53;;;;;;;;;;;21.40;54.70;;;;;;4954755;28;83766;-45
2023/08/09 14:30:19;;;;;;;;;;;21.40;54.70;;;;;;4945194;28;83750;-45
2023/08/09 14:32:45;;;;;;;;;;;21.40;54.60;;;;;;4954731;28;82071;-44
2023/08/09 14:35:11;;;;;;;;;;;21.40;54.50;;;;;;4958217;28;82456;-43
2023/08/09 14:37:37;;;;;;;;;;;21.50;54.60;;;;;;4957822;28;82345;-42
2023/08/09 14:40:07;;;;;;;;;;;21.50;54.50;;;;;;4948789;28;82527;-45
2023/08/09 14:42:39;;;;;;;;;;;21.50;54.50;;;;;;4949438;28;86310;-44
2023/08/09 14:45:06;;;;;;;;;;;21.50;54.50;;;;;;4949412;28;81643;-45
2023/08/09 14:47:32;;;;;;;;;;;21.50;54.50;;;;;;4947539;28;82227;-45
2023/08/09 14:49:58;;;;;;;;;;;21.50;54.50;;;;;;4942188;28;83772;-44
2023/08/09 14:52:23;;;;;;;;;;;21.60;54.50;;;;;;4946230;28;83045;-40
2023/08/09 14:54:49;;;;;;;;;;;21.60;54.50;;;;;;4955416;28;83318;-45
2023/08/09 14:57:15;;;;;;;;;;;21.60;54.50;;;;;;4948929;28;82786;-44
2023/08/09 14:59:41;;;;;;;;;;;21.60;54.50;;;;;;4946048;28;82243;-42
2023/08/09 15:02:07;;;;;;;;;;;21.60;54.50;;;;;;4957392;28;82063;-43
2023/08/09 15:04:34;;;;;;;;;;;21.60;54.50;;;;;;4955267;28;82060;-44
2023/08/09 15:07:01;;;;;;;;;;;21.60;54.40;;;;;;4948411;28;82386;-45
2023/08/09 15:09:28;;;;;;;;;;;21.70;54.40;;;;;;4947385;28;82322;-42
2023/08/09 15:11:54;;;;;;;;;;;21.70;54.40;;;;;;4956671;28;82007;-40
2023/08/09 15:14:19;;;;;;;;;;;21.70;54.30;;;;;;4952123;28;82609;-44
2023/08/09 15:16:45;;;;;;;;;;;21.70;54.30;;;;;;4947352;28;83174;-45
2023/08/09 15:19:10;;;;;;;;;;;21.80;54.30;;;;;;4951684;28;82382;-45
2023/08/09 15:21:36;;;;;;;;;;;21.70;54.30;;;;;;4955679;28;82729;-42
2023/08/09 15:24:02;;;;;;;;;;;21.70;54.20;;;;;;4949314;28;82101;-42
2023/08/09 15:26:27;;;;;;;;;;;21.80;54.30;;;;;;4943535;28;82470;-44
2023/08/09 15:28:53;;;;;;;;;;;21.80;54.30;;;;;;4947646;28;83538;-44
2023/08/09 15:31:18;;;;;;;;;;;21.80;54.20;;;;;;4956822;28;81962;-41
2023/08/09 15:33:44;;;;;;;;;;;21.80;54.10;;;;;;4954106;28;82428;-42
2023/08/09 15:36:09;;;;;;;;;;;21.80;54.10;;;;;;4947933;28;83596;-42
2023/08/09 15:38:35;;;;;;;;;;;21.90;54.10;;;;;;4951285;28;83381;-44
2023/08/09 15:41:02;;;;;;;;;;;21.80;54.10;;;;;;4958367;28;82892;-43
2023/08/09 15:43:28;;;;;;;;;;;21.90;54.10;;;;;;4947480;28;82074;-42
2023/08/09 15:45:53;;;;;;;;;;;21.90;54.10;;;;;;4938240;28;82358;-44
2023/08/09 15:48:19;;;;;;;;;;;21.90;54.10;;;;;;4952763;28;82982;-42
2023/08/09 15:50:44;;;;;;;;;;;21.90;54.10;;;;;;4954541;28;82028;-41
2023/08/09 15:53:10;;;;;;;;;;;21.90;54.10;;;;;;4940608;28;82963;-43
2023/08/09 15:55:35;;;;;;;;;;;21.90;54.00;;;;;;4948369;28;83060;-42
2023/08/09 15:58:01;;;;;;;;;;;21.90;54.00;;;;;;4957158;28;81145;-44
2023/08/09 16:00:27;;;;;;;;;;;22.00;53.90;;;;;;4957970;28;82239;-43
2023/08/09 16:02:53;;;;;;;;;;;22.00;53.90;;;;;;4959058;28;83125;-41
2023/08/09 16:05:25;;;;;;;;;;;22.00;53.90;;;;;;4948988;28;84815;-43
2023/08/09 16:07:52;;;;;;;;;;;22.00;53.90;;;;;;4957573;28;82005;-42
2023/08/09 16:10:18;;;;;;;;;;;22.00;53.80;;;;;;4955931;28;82493;-44
2023/08/09 16:12:43;;;;;;;;;;;22.00;53.80;;;;;;4949382;28;82530;-40
2023/08/09 16:15:09;;;;;;;;;;;22.00;53.70;;;;;;4949269;28;83205;-41
2023/08/09 16:17:34;;;;;;;;;;;22.00;53.70;;;;;;4959638;28;82036;-43
2023/08/09 16:20:01;;;;;;;;;;;22.00;53.70;;;;;;4956576;28;82804;-43
2023/08/09 16:22:27;;;;;;;;;;;22.00;53.60;;;;;;4951141;28;83753;-46
2023/08/09 16:24:53;;;;;;;;;;;22.00;53.60;;;;;;4954691;28;82081;-42
2023/08/09 16:27:18;;;;;;;;;;;22.00;53.50;;;;;;4958079;28;83074;-41
2023/08/09 16:29:44;;;;;;;;;;;22.00;53.50;;;;;;4956408;28;83422;-41
2023/08/09 16:32:09;;;;;;;;;;;22.00;53.50;;;;;;4949260;28;83537;-44
2023/08/09 16:34:35;;;;;;;;;;;22.00;53.50;;;;;;4958467;28;82884;-42
2023/08/09 16:37:00;;;;;;;;;;;22.10;53.40;;;;;;4958315;28;81986;-41
2023/08/09 16:39:26;;;;;;;;;;;22.10;53.40;;;;;;4951893;28;82357;-46
2023/08/09 16:41:52;;;;;;;;;;;22.10;53.40;;;;;;4948550;28;83873;-43
2023/08/09 16:44:17;;;;;;;;;;;22.10;53.40;;;;;;4958228;28;82071;-42
2023/08/09 16:46:43;;;;;;;;;;;22.10;53.30;;;;;;4958915;28;82284;-44
2023/08/09 16:49:09;;;;;;;;;;;22.10;53.30;;;;;;4950948;28;82121;-42
2023/08/09 16:51:34;;;;;;;;;;;22.10;53.30;;;;;;4953653;28;84000;-44
2023/08/09 16:54:00;;;;;;;;;;;22.10;53.20;;;;;;4955519;28;84095;-42
2023/08/09 16:56:25;;;;;;;;;;;22.10;53.20;;;;;;4955482;28;82077;-44
2023/08/09 16:58:51;;;;;;;;;;;22.10;53.20;;;;;;4943676;28;82873;-43
2023/08/09 17:01:19;;;;;;;;;;;22.10;53.20;;;;;;4947634;28;82948;-42
2023/08/09 17:03:45;;;;;;;;;;;22.20;53.20;;;;;;4958339;28;82055;-42
2023/08/09 17:06:11;;;;;;;;;;;22.20;53.20;;;;;;4949004;28;82842;-42
2023/08/09 17:08:37;;;;;;;;;;;22.20;53.20;;;;;;4941007;28;82423;-45
2023/08/09 17:11:02;;;;;;;;;;;22.20;53.20;;;;;;4949854;28;81584;-43
2023/08/09 17:13:28;;;;;;;;;;;22.20;53.20;;;;;;4950102;28;83016;-44
2023/08/09 17:15:53;;;;;;;;;;;22.20;53.30;;;;;;4955429;28;82151;-41
2023/08/09 17:18:19;;;;;;;;;;;22.20;53.20;;;;;;4956366;28;83149;-42
2023/08/09 17:20:44;;;;;;;;;;;22.20;53.20;;;;;;4949370;28;83054;-40
2023/08/09 17:23:10;;;;;;;;;;;22.20;53.20;;;;;;4953398;28;82104;-44
2023/08/09 17:25:35;;;;;;;;;;;22.20;53.10;;;;;;4952799;28;82806;-44
2023/08/09 17:28:01;;;;;;;;;;;22.20;53.10;;;;;;4949072;28;83109;-42
2023/08/09 17:30:27;;;;;;;;;;;22.20;53.10;;;;;;4951202;28;82564;-44
2023/08/09 17:32:57;;;;;;;;;;;22.20;53.10;;;;;;4955412;28;84493;-44
2023/08/09 17:35:26;;;;;;;;;;;22.20;53.10;;;;;;4952962;28;81339;-40
2023/08/09 17:37:52;;;;;;;;;;;22.20;53.20;;;;;;4953238;28;82146;-44
2023/08/09 17:40:17;;;;;;;;;;;22.20;53.10;;;;;;4953650;28;83154;-46
2023/08/09 17:42:43;;;;;;;;;;;22.30;53.20;;;;;;4955754;28;83062;-45
2023/08/09 17:45:09;;;;;;;;;;;22.20;53.10;;;;;;4954635;28;83012;-43
2023/08/09 17:47:35;;;;;;;;;;;22.20;53.10;;;;;;4954493;28;82951;-42
2023/08/09 17:50:00;;;;;;;;;;;22.20;53.10;;;;;;4961256;28;82650;-45
2023/08/09 17:52:27;;;;;;;;;;;22.20;53.10;;;;;;4956021;28;82284;-46
2023/08/09 17:54:53;;;;;;;;;;;22.20;53.10;;;;;;4955500;28;83791;-44
2023/08/09 17:57:18;;;;;;;;;;;22.20;53.10;;;;;;4958246;28;82481;-44
2023/08/09 17:59:44;;;;;;;;;;;22.20;53.10;;;;;;4956403;28;81479;-45
2023/08/09 18:02:10;;;;;;;;;;;22.20;53.10;;;;;;4952211;28;82129;-45
2023/08/09 18:04:35;;;;;;;;;;;22.30;53.20;;;;;;4958106;28;82755;-44
2023/08/09 18:07:01;;;;;;;;;;;22.20;53.20;;;;;;4954927;28;83267;-44
2023/08/09 18:09:27;;;;;;;;;;;22.30;53.20;;;;;;4954912;28;82070;-42
2023/08/09 18:11:52;;;;;;;;;;;22.20;53.20;;;;;;4958473;28;82293;-40
2023/08/09 18:14:18;;;;;;;;;;;22.20;53.20;;;;;;4958210;28;82109;-41
2023/08/09 18:16:46;;;;;;;;;;;22.20;53.20;;;;;;4955240;28;82618;-43
2023/08/09 18:19:16;;;;;;;;;;;22.20;53.20;;;;;;4955414;28;83005;-44
2023/08/09 18:21:43;;;;;;;;;;;22.30;53.30;;;;;;4955752;28;82147;-41
2023/08/09 18:24:09;;;;;;;;;;;22.20;53.30;;;;;;4952752;28;82438;-43
2023/08/09 18:26:34;;;;;;;;;;;22.20;53.30;;;;;;4954454;28;83017;-45
2023/08/09 18:29:00;;;;;;;;;;;22.30;53.40;;;;;;4955315;28;82001;-44
2023/08/09 18:31:25;;;;;;;;;;;22.30;53.30;;;;;;4959882;28;83106;-44
2023/08/09 18:33:51;;;;;;;;;;;22.20;53.30;;;;;;4955844;28;82911;-45
2023/08/09 18:36:17;;;;;;;;;;;22.20;53.30;;;;;;4955800;28;82658;-43
2023/08/09 18:38:43;;;;;;;;;;;22.30;53.40;;;;;;4954109;28;83045;-45
2023/08/09 18:41:09;;;;;;;;;;;22.30;53.40;;;;;;4955120;28;82478;-41
2023/08/09 18:43:34;;;;;;;;;;;22.30;53.40;;;;;;4956388;28;82368;-44
2023/08/09 18:46:02;;;;;;;;;;;22.20;53.40;;;;;;4956546;28;83091;-44
2023/08/09 18:48:28;;;;;;;;;;;22.20;53.40;;;;;;4955432;28;81395;-45
2023/08/09 18:50:54;;;;;;;;;;;22.20;53.40;;;;;;4956782;28;82022;-44
2023/08/09 18:53:21;;;;;;;;;;;22.30;53.50;;;;;;4950160;28;82912;-44
2023/08/09 18:55:47;;;;;;;;;;;22.20;53.40;;;;;;4948641;28;83041;-44
2023/08/09 18:58:12;;;;;;;;;;;22.20;53.40;;;;;;4956884;28;82081;-43
2023/08/09 19:00:38;;;;;;;;;;;22.20;53.40;;;;;;4956349;28;81986;-43
2023/08/09 19:03:04;;;;;;;;;;;22.20;53.40;;;;;;4954769;28;82410;-45
2023/08/09 19:05:29;;;;;;;;;;;22.20;53.40;;;;;;4950623;28;82609;-42
2023/08/09 19:07:55;;;;;;;;;;;22.20;53.40;;;;;;4956519;28;82713;-42
2023/08/09 19:10:20;;;;;;;;;;;22.20;53.50;;;;;;4941775;28;82540;-42
2023/08/09 19:12:47;;;;;;;;;;;22.30;53.50;;;;;;4953448;28;81758;-43
2023/08/09 19:15:13;;;;;;;;;;;22.20;53.50;;;;;;4959294;28;82064;-43
2023/08/09 19:17:39;;;;;;;;;;;22.30;53.50;;;;;;4951411;28;83175;-44
2023/08/09 19:20:06;;;;;;;;;;;22.20;53.50;;;;;;4956507;28;83049;-43
2023/08/09 19:22:32;;;;;;;;;;;22.30;53.50;;;;;;4950916;28;84153;-42
2023/08/09 19:24:58;;;;;;;;;;;22.30;53.50;;;;;;4953942;28;83113;-43
2023/08/09 19:27:24;;;;;;;;;;;22.20;53.50;;;;;;4954450;28;82088;-43
2023/08/09 19:29:49;;;;;;;;;;;22.20;53.50;;;;;;4957086;28;82505;-42
2023/08/09 19:32:15;;;;;;;;;;;22.20;53.60;;;;;;4954878;28;82587;-44
2023/08/09 19:34:40;;;;;;;;;;;22.30;53.50;;;;;;4944394;28;82101;-41
2023/08/09 19:37:09;;;;;;;;;;;22.30;53.60;;;;;;4955460;28;82640;-41
2023/08/09 19:39:34;;;;;;;;;;;22.20;53.50;;;;;;4948946;28;82082;-43
2023/08/09 19:42:01;;;;;;;;;;;22.20;53.50;;;;;;4945804;28;82889;-42
2023/08/09 19:44:26;;;;;;;;;;;22.20;53.50;;;;;;4954838;28;84045;-41
2023/08/09 19:46:52;;;;;;;;;;;22.20;53.60;;;;;;4953954;28;82205;-44
2023/08/09 19:49:18;;;;;;;;;;;22.20;53.50;;;;;;4956296;28;82023;-43
2023/08/09 19:51:44;;;;;;;;;;;22.20;53.60;;;;;;4955963;28;83009;-43
2023/08/09 19:54:10;;;;;;;;;;;22.20;53.60;;;;;;4953120;28;82088;-41
2023/08/09 19:56:36;;;;;;;;;;;22.20;53.60;;;;;;4953255;28;82457;-44
2023/08/09 19:59:01;;;;;;;;;;;22.20;53.60;;;;;;4958057;28;83216;-43
2023/08/09 20:01:27;;;;;;;;;;;22.20;53.60;;;;;;4956507;28;82412;-41
2023/08/09 20:03:52;;;;;;;;;;;22.20;53.60;;;;;;4953602;28;82899;-44
2023/08/09 20:06:19;;;;;;;;;;;22.30;53.70;;;;;;4956205;28;82419;-44
2023/08/09 20:08:45;;;;;;;;;;;22.20;53.60;;;;;;4950745;28;83151;-42
2023/08/09 20:11:12;;;;;;;;;;;22.20;53.60;;;;;;4951478;28;82090;-41
2023/08/09 20:13:38;;;;;;;;;;;22.20;53.60;;;;;;4956178;28;82198;-44
2023/08/09 20:16:04;;;;;;;;;;;22.20;53.60;;;;;;4954837;28;82547;-44
2023/08/09 20:18:33;;;;;;;;;;;22.20;53.70;;;;;;4953786;28;83002;-43
2023/08/09 20:20:58;;;;;;;;;;;22.20;53.70;;;;;;4952811;28;81952;-43
2023/08/09 20:23:24;;;;;;;;;;;22.20;53.70;;;;;;4948992;28;83090;-45
2023/08/09 20:25:50;;;;;;;;;;;22.20;53.70;;;;;;4953571;28;81335;-42
2023/08/09 20:28:16;;;;;;;;;;;22.20;53.60;;;;;;4952872;28;83200;-45
2023/08/09 20:30:43;;;;;;;;;;;22.20;53.70;;;;;;4955671;28;83142;-46
2023/08/09 20:33:09;;;;;;;;;;;22.20;53.70;;;;;;4953072;28;82942;-41
2023/08/09 20:35:35;;;;;;;;;;;22.20;53.70;;;;;;4953309;28;83217;-46
2023/08/09 20:38:01;;;;;;;;;;;22.20;53.70;;;;;;4956203;28;83099;-45
2023/08/09 20:40:26;;;;;;;;;;;22.20;53.70;;;;;;4954997;28;82074;-43
2023/08/09 20:42:52;;;;;;;;;;;22.20;53.70;;;;;;4957203;28;82454;-44